Time;durP1;ratioP1;P1;durP2;ratioP2;P2;SDS_P1;SDS_P2;PMS_P1;PMS_P2;Temp;Humidity;BMP_temperature;BMP_pressure;BME280_temperature;BME280_humidity;BME280_pressure;Samples;Min_cycle;Max_cycle;Signal;HPM_P1;HPM_P2
2021/06/08 00:00:53;;;;;;;3.58;1.30;;;;;;;17.26;54.76;101480.16;3596806;40;20519;-80
2021/06/08 00:03:26;;;;;;;5.20;1.70;;;;;;;17.20;53.80;101464.56;3600036;40;20048;-79
2021/06/08 00:05:54;;;;;;;2.92;1.52;;;;;;;17.10;55.19;101463.19;3606051;40;20728;-79
2021/06/08 00:08:21;;;;;;;3.53;1.15;;;;;;;17.07;54.92;101469.41;3598510;40;20040;-80
2021/06/08 00:10:49;;;;;;;4.72;1.40;;;;;;;17.02;55.32;101471.38;3601835;40;20028;-79
2021/06/08 00:13:18;;;;;;;3.75;1.50;;;;;;;17.01;55.40;101474.06;3581732;40;20575;-80
2021/06/08 00:15:47;;;;;;;3.60;1.50;;;;;;;16.97;55.46;101483.00;3593272;40;20032;-79
2021/06/08 00:18:14;;;;;;;4.82;1.60;;;;;;;16.93;55.94;101477.00;3584468;40;20031;-80
2021/06/08 00:20:42;;;;;;;2.47;1.20;;;;;;;16.90;55.77;101481.53;3598424;40;20086;-80
2021/06/08 00:23:13;;;;;;;5.22;1.83;;;;;;;16.86;54.45;101475.50;3596238;40;20041;-80
2021/06/08 00:25:40;;;;;;;3.42;1.30;;;;;;;16.81;56.25;101470.38;3603532;40;20042;-79
2021/06/08 00:28:09;;;;;;;3.00;1.30;;;;;;;16.78;56.01;101473.16;3580489;40;20052;-80
2021/06/08 00:31:00;;;;;;;3.33;1.17;;;;;;;16.79;53.43;101472.22;3583565;40;20038;-80
2021/06/08 00:33:31;;;;;;;1.90;1.17;;;;;;;16.76;55.31;101464.41;3591143;40;20033;-80
2021/06/08 00:35:58;;;;;;;3.95;1.50;;;;;;;16.73;55.96;101469.81;3593523;40;20057;-79
2021/06/08 00:38:26;;;;;;;3.63;1.20;;;;;;;16.73;55.74;101461.91;3582750;40;20037;-79
2021/06/08 00:40:52;;;;;;;2.67;0.88;;;;;;;16.70;56.38;101464.59;3589766;40;20029;-80
2021/06/08 00:43:27;;;;;;;3.85;1.27;;;;;;;16.71;55.41;101471.63;3582026;40;20045;-81
2021/06/08 00:46:08;;;;;;;2.53;1.10;;;;;;;16.70;54.58;101467.25;3593928;40;21085;-79
2021/06/08 00:48:35;;;;;;;5.55;1.20;;;;;;;16.64;57.05;101467.47;3579334;40;20523;-79
2021/06/08 00:51:02;;;;;;;;;;;;;;;16.64;52.45;101464.84;3596445;40;20037;-80
2021/06/08 00:53:30;;;;;;;2.80;1.30;;;;;;;16.59;56.44;101472.03;3584002;40;20039;-80
2021/06/08 00:55:56;;;;;;;;;;;;;;;16.58;52.03;101468.56;3594069;40;20076;-80
2021/06/08 00:58:23;;;;;;;6.97;1.83;;;;;;;16.52;56.38;101474.00;3584531;40;19994;-79
2021/06/08 01:00:51;;;;;;;3.42;1.20;;;;;;;16.50;57.25;101477.63;3580366;40;20375;-79
2021/06/08 01:03:19;;;;;;;1.60;1.00;;;;;;;16.47;57.24;101477.72;3598245;40;20040;-79
2021/06/08 01:05:48;;;;;;;3.38;1.17;;;;;;;16.43;57.47;101471.72;3599099;40;20033;-79
2021/06/08 01:08:15;;;;;;;2.17;0.93;;;;;;;16.37;57.62;101476.31;3598133;40;20090;-80
2021/06/08 01:10:42;;;;;;;3.70;1.50;;;;;;;16.35;57.60;101469.34;3589766;40;20069;-79
2021/06/08 01:13:13;;;;;;;2.38;0.70;;;;;;;16.30;56.45;101466.00;3595871;40;20025;-80
2021/06/08 01:16:06;;;;;;;8.13;1.60;;;;;;;16.35;55.00;101479.03;3589781;40;20064;-80
2021/06/08 01:18:33;;;;;;;3.80;1.45;;;;;;;16.29;56.77;101477.47;3589365;40;20052;-80
2021/06/08 01:21:27;;;;;;;2.13;1.05;;;;;;;16.37;54.81;101486.88;3590377;40;20024;-79
2021/06/08 01:23:55;;;;;;;4.07;1.10;;;;;;;16.30;57.92;101479.19;3580804;40;20041;-80
2021/06/08 01:26:26;;;;;;;2.63;1.15;;;;;;;16.31;57.08;101482.69;3590186;40;20037;-79
2021/06/08 01:29:03;;;;;;;5.05;1.20;;;;;;;16.32;56.38;101476.47;3594360;40;20037;-80
2021/06/08 01:31:35;;;;;;;4.10;1.47;;;;;;;16.38;57.98;101478.06;3582873;40;20044;-79
2021/06/08 01:34:03;;;;;;;2.97;1.10;;;;;;;16.39;57.50;101479.78;3582737;40;20784;-79
2021/06/08 01:36:57;;;;;;;;;;;;;;;16.44;54.32;101480.50;3597096;40;20028;-80
2021/06/08 01:39:52;;;;;;;6.68;1.35;;;;;;;16.49;55.56;101484.69;3584745;40;19945;-80
2021/06/08 01:42:20;;;;;;;2.65;1.00;;;;;;;16.47;58.37;101483.88;3587511;40;20107;-80
2021/06/08 01:44:48;;;;;;;2.47;1.13;;;;;;;16.50;57.52;101482.91;3589354;40;20066;-79
2021/06/08 01:47:17;;;;;;;;;;;;;;;16.58;53.89;101491.44;3592004;40;20090;-80
2021/06/08 01:49:44;;;;;;;3.60;1.17;;;;;;;16.57;58.31;101489.69;3596231;40;19948;-80
2021/06/08 01:52:40;;;;;;;2.22;1.15;;;;;;;16.62;56.66;101482.47;3580768;40;20036;-79
2021/06/08 01:55:25;;;;;;;2.17;1.08;;;;;;;16.58;55.96;101476.47;3588269;40;20041;-79
2021/06/08 01:58:07;;;;;;;2.75;1.30;;;;;;;16.66;56.26;101489.38;3586058;40;20155;-79
2021/06/08 02:00:56;;;;;;;3.92;1.20;;;;;;;16.70;56.01;101485.72;3586813;40;20030;-79
2021/06/08 02:03:33;;;;;;;2.05;1.10;;;;;;;16.71;56.70;101487.47;3573480;40;20430;-80
2021/06/08 02:06:40;;;;;;;2.77;1.20;;;;;;;16.78;55.94;101496.03;3586587;40;20029;-80
2021/06/08 02:09:17;;;;;;;3.25;1.38;;;;;;;16.79;56.51;101485.41;3583928;40;20276;-79
2021/06/08 02:12:04;;;;;;;1.88;0.98;;;;;;;16.82;58.38;101493.19;3588740;40;20045;-79
2021/06/08 02:14:40;;;;;;;;;;;;;;;16.88;54.42;101485.97;3589287;40;20053;-79
2021/06/08 02:17:24;;;;;;;2.80;1.20;;;;;;;16.89;56.63;101495.66;3581004;40;19945;-79
2021/06/08 02:19:57;;;;;;;1.90;0.95;;;;;;;16.86;57.65;101489.53;3574248;40;20085;-80
2021/06/08 02:22:27;;;;;;;2.40;1.02;;;;;;;16.91;56.66;101499.06;3587875;40;20044;-80
2021/06/08 02:24:55;;;;;;;2.50;1.10;;;;;;;16.90;58.68;101489.44;3582041;40;20045;-79
2021/06/08 02:27:24;;;;;;;2.30;1.30;;;;;;;16.89;58.10;101487.72;3585047;40;20041;-80
2021/06/08 02:29:54;;;;;;;2.80;1.08;;;;;;;16.96;57.85;101486.56;3588258;40;20033;-80
2021/06/08 02:32:22;;;;;;;2.00;1.30;;;;;;;17.02;58.21;101499.53;3589373;40;20090;-79
2021/06/08 02:34:52;;;;;;;2.30;0.93;;;;;;;17.04;57.77;101495.09;3595008;40;20036;-80
2021/06/08 02:37:20;;;;;;;2.20;0.75;;;;;;;17.05;57.85;101499.44;3589241;40;20556;-79
2021/06/08 02:39:48;;;;;;;3.72;1.42;;;;;;;17.10;58.56;101494.84;3590284;40;20509;-80
2021/06/08 02:42:18;;;;;;;5.18;1.55;;;;;;;17.09;58.95;101488.72;3580223;40;20049;-80
2021/06/08 02:44:48;;;;;;;4.03;1.40;;;;;;;17.14;58.63;101490.31;3582839;40;20037;-79
2021/06/08 02:47:17;;;;;;;2.80;1.38;;;;;;;17.13;59.30;101494.72;3579193;40;20036;-79
2021/06/08 02:49:50;;;;;;;3.13;1.30;;;;;;;17.14;58.62;101487.69;3580761;40;20025;-80
2021/06/08 02:52:19;;;;;;;5.32;1.58;;;;;;;17.14;59.11;101482.41;3588895;40;20029;-79
2021/06/08 02:54:50;;;;;;;5.15;1.77;;;;;;;17.12;59.67;101477.16;3582106;40;20087;-79
2021/06/08 02:57:19;;;;;;;3.78;1.90;;;;;;;17.12;60.06;101482.44;3589805;40;20127;-80
2021/06/08 02:59:50;;;;;;;2.58;1.30;;;;;;;17.12;59.37;101471.88;3591740;40;20089;-80
2021/06/08 03:02:22;;;;;;;1.52;1.05;;;;;;;17.10;59.14;101473.75;3580794;40;20040;-80
2021/06/08 03:05:01;;;;;;;3.15;1.50;;;;;;;17.12;59.38;101477.16;3591483;40;20394;-80
2021/06/08 03:07:34;;;;;;;5.28;1.55;;;;;;;17.12;59.46;101479.81;3591783;40;20131;-79
2021/06/08 03:10:10;;;;;;;2.97;1.27;;;;;;;17.10;59.29;101473.75;3589363;40;20367;-79
2021/06/08 03:12:55;;;;;;;4.13;1.77;;;;;;;17.10;58.12;101484.28;3595242;40;20073;-79
2021/06/08 03:15:46;;;;;;;2.55;1.30;;;;;;;17.11;57.94;101492.13;3591683;40;20061;-80
2021/06/08 03:18:16;;;;;;;5.35;1.67;;;;;;;17.10;60.88;101494.84;3596971;40;20596;-80
2021/06/08 03:20:56;;;;;;;3.33;1.30;;;;;;;17.09;58.69;101493.13;3588905;40;20039;-79
2021/06/08 03:23:36;;;;;;;3.45;1.27;;;;;;;17.09;59.11;101487.84;3576807;40;20053;-80
2021/06/08 03:26:05;;;;;;;1.67;1.00;;;;;;;17.08;59.94;101491.38;3587305;40;20065;-78
2021/06/08 03:28:34;;;;;;;4.80;1.30;;;;;;;17.07;60.77;101479.13;3602326;40;20029;-79
2021/06/08 03:31:05;;;;;;;2.30;1.17;;;;;;;17.09;60.50;101477.31;3603744;40;20036;-79
2021/06/08 03:33:36;;;;;;;2.83;1.40;;;;;;;17.10;60.60;101477.22;3608789;40;20032;-79
2021/06/08 03:36:04;;;;;;;5.43;1.45;;;;;;;17.10;61.68;101492.22;3598264;40;20482;-80
2021/06/08 03:38:32;;;;;;;3.25;1.60;;;;;;;17.08;61.72;101478.19;3600804;40;20052;-80
2021/06/08 03:41:01;;;;;;;2.90;1.40;;;;;;;17.11;61.37;101481.59;3602357;40;20634;-79
2021/06/08 03:43:29;;;;;;;3.03;1.10;;;;;;;17.07;61.44;101479.97;3589845;40;20368;-79
2021/06/08 03:45:59;;;;;;;2.50;1.05;;;;;;;17.09;60.62;101474.66;3580037;40;20062;-79
2021/06/08 03:48:32;;;;;;;3.25;1.60;;;;;;;17.09;61.10;101477.31;3595108;40;20129;-80
2021/06/08 03:51:01;;;;;;;2.47;0.90;;;;;;;17.06;61.12;101487.97;3600669;40;20043;-79
2021/06/08 03:53:29;;;;;;;4.10;1.80;;;;;;;17.04;61.97;101474.81;3599066;40;20037;-80
2021/06/08 03:55:56;;;;;;;;;;;;;;;17.10;56.72;101473.75;3602061;40;20454;-80
2021/06/08 03:58:24;;;;;;;3.72;1.65;;;;;;;17.06;62.05;101482.69;3596468;40;20266;-80
2021/06/08 04:00:58;;;;;;;2.60;1.00;;;;;;;17.06;60.78;101472.97;3592270;40;20093;-79
2021/06/08 04:03:27;;;;;;;3.20;1.42;;;;;;;17.01;62.16;101476.72;3597412;40;20121;-79
2021/06/08 04:06:01;;;;;;;4.25;1.42;;;;;;;17.01;61.04;101464.38;3590066;40;20036;-80
2021/06/08 04:08:32;;;;;;;3.63;1.25;;;;;;;16.99;61.82;101479.41;3589120;40;20037;-79
2021/06/08 04:11:00;;;;;;;3.50;1.45;;;;;;;16.97;62.58;101472.47;3592698;40;20041;-79
2021/06/08 04:13:27;;;;;;;3.13;1.33;;;;;;;16.94;63.21;101477.88;3593021;40;20028;-79
2021/06/08 04:15:55;;;;;;;4.07;1.48;;;;;;;16.89;63.11;101470.13;3597194;40;20028;-79
2021/06/08 04:18:30;;;;;;;3.28;1.45;;;;;;;16.91;62.25;101475.31;3597855;40;20040;-78
2021/06/08 04:21:03;;;;;;;2.85;0.93;;;;;;;16.90;60.79;101476.25;3594346;40;20069;-80
2021/06/08 04:23:34;;;;;;;2.15;1.00;;;;;;;16.90;62.13;101481.53;3584112;40;20040;-80
2021/06/08 04:26:03;;;;;;;3.10;1.35;;;;;;;16.84;63.18;101472.91;3589280;40;20052;-79
2021/06/08 04:28:30;;;;;;;2.60;1.30;;;;;;;16.86;63.63;101476.34;3596832;40;20048;-79
2021/06/08 04:30:57;;;;;;;2.53;1.20;;;;;;;16.88;62.46;101467.50;3579848;40;20033;-79
2021/06/08 04:33:29;;;;;;;4.03;1.27;;;;;;;16.89;62.38;101469.25;3578490;40;20106;-79
2021/06/08 04:35:57;;;;;;;2.80;1.27;;;;;;;16.91;63.14;101472.69;3584142;40;20040;-79
2021/06/08 04:38:29;;;;;;;3.40;1.30;;;;;;;16.94;62.58;101469.94;3584437;40;20042;-79
2021/06/08 04:40:56;;;;;;;2.53;1.30;;;;;;;16.92;63.07;101470.00;3593921;40;20090;-79
2021/06/08 04:43:25;;;;;;;7.15;1.50;;;;;;;16.97;62.85;101467.19;3593865;40;20469;-79
2021/06/08 04:45:54;;;;;;;2.13;1.20;;;;;;;16.97;63.45;101452.22;3582934;40;20036;-79
2021/06/08 04:48:24;;;;;;;4.10;1.60;;;;;;;16.98;63.46;101453.06;3592504;40;20394;-80
2021/06/08 04:50:52;;;;;;;3.72;1.50;;;;;;;16.99;63.86;101460.09;3592552;40;20040;-80
2021/06/08 04:53:24;;;;;;;3.20;1.33;;;;;;;17.02;62.47;101459.94;3591378;40;20036;-80
2021/06/08 04:55:53;;;;;;;2.20;1.10;;;;;;;17.02;63.17;101462.59;3590750;40;20029;-80
2021/06/08 04:58:22;;;;;;;3.17;1.38;;;;;;;17.03;63.63;101462.56;3588220;40;20428;-79
2021/06/08 05:01:02;;;;;;;3.35;1.50;;;;;;;17.06;62.04;101466.84;3591172;40;20030;-79
2021/06/08 05:03:36;;;;;;;3.53;1.38;;;;;;;17.04;63.60;101466.06;3579436;40;20400;-79
2021/06/08 05:06:13;;;;;;;3.38;1.35;;;;;;;17.04;62.94;101468.69;3584921;40;20036;-79
2021/06/08 05:08:51;;;;;;;2.70;1.40;;;;;;;17.03;62.58;101466.94;3590202;40;20039;-79
2021/06/08 05:11:34;;;;;;;2.13;1.30;;;;;;;17.02;62.93;101475.78;3590347;40;20047;-79
2021/06/08 05:14:04;;;;;;;2.65;1.17;;;;;;;17.04;63.53;101479.25;3583408;40;20037;-79
2021/06/08 05:16:32;;;;;;;3.67;1.20;;;;;;;17.04;63.77;101468.69;3594777;40;20033;-79
2021/06/08 05:19:01;;;;;;;4.95;1.45;;;;;;;17.08;63.10;101468.53;3582204;40;20057;-79
2021/06/08 05:21:29;;;;;;;1.50;0.90;;;;;;;17.08;63.42;101475.56;3572473;40;20037;-79
2021/06/08 05:23:57;;;;;;;;;;;;;;;17.16;59.78;101484.06;3589987;40;20013;-79
2021/06/08 05:26:25;;;;;;;2.10;1.20;;;;;;;17.14;63.46;101485.06;3591047;40;19947;-80
2021/06/08 05:28:54;;;;;;;3.17;1.30;;;;;;;17.16;62.89;101481.41;3603199;40;20401;-79
2021/06/08 05:31:23;;;;;;;3.83;1.55;;;;;;;17.18;62.54;101479.56;3598818;40;20041;-79
2021/06/08 05:33:56;;;;;;;6.07;1.55;;;;;;;17.20;62.36;101475.13;3596947;40;20040;-79
2021/06/08 05:36:36;;;;;;;2.70;1.23;;;;;;;17.23;61.59;101482.91;3589267;40;20032;-79
2021/06/08 05:39:06;;;;;;;4.63;1.70;;;;;;;17.22;63.32;101478.53;3589452;40;20064;-80
2021/06/08 05:41:38;;;;;;;2.63;1.52;;;;;;;17.20;62.29;101483.03;3603417;40;20511;-80
2021/06/08 05:44:06;;;;;;;2.80;1.30;;;;;;;17.23;62.46;101489.97;3595685;40;20090;-79
2021/06/08 05:46:39;;;;;;;3.47;1.48;;;;;;;17.28;61.98;101494.13;3597919;40;20405;-80
2021/06/08 05:49:08;;;;;;;4.80;2.17;;;;;;;17.28;63.18;101493.28;3595666;40;20086;-79
2021/06/08 05:51:38;;;;;;;4.00;1.63;;;;;;;17.27;63.19;101489.78;3599814;40;20733;-79
2021/06/08 05:54:11;;;;;;;5.95;1.75;;;;;;;17.31;62.67;101498.47;3594501;40;20031;-79
2021/06/08 05:56:47;;;;;;;6.43;1.80;;;;;;;17.28;62.10;101488.84;3600792;40;20044;-80
2021/06/08 05:59:21;;;;;;;;;;;;;;;17.34;59.96;101499.22;3603956;40;20055;-79
2021/06/08 06:01:50;;;;;;;7.50;1.63;;;;;;;17.29;63.10;101495.03;3594600;40;20038;-79
2021/06/08 06:04:18;;;;;;;3.60;1.60;;;;;;;17.29;62.93;101495.03;3595255;40;20041;-79
2021/06/08 06:06:48;;;;;;;6.25;1.65;;;;;;;17.30;62.67;101500.25;3597459;40;20459;-80
2021/06/08 06:09:25;;;;;;;2.40;1.42;;;;;;;17.31;62.41;101498.47;3598440;40;20484;-79
2021/06/08 06:11:54;;;;;;;6.72;1.40;;;;;;;17.27;63.16;101489.78;3595773;40;20051;-79
2021/06/08 06:14:23;;;;;;;3.58;1.73;;;;;;;17.26;64.27;101490.72;3595045;40;20033;-79
2021/06/08 06:16:54;;;;;;;3.33;1.63;;;;;;;17.26;63.14;101498.63;3596821;40;20024;-79
2021/06/08 06:19:28;;;;;;;5.32;1.60;;;;;;;17.29;63.10;101500.31;3597852;40;20052;-79
2021/06/08 06:21:57;;;;;;;4.82;1.45;;;;;;;17.28;64.40;101495.91;3602256;40;20474;-79
2021/06/08 06:24:26;;;;;;;2.55;1.15;;;;;;;17.28;64.64;101495.91;3598689;40;20044;-79
2021/06/08 06:26:55;;;;;;;5.68;1.80;;;;;;;17.32;64.63;101503.66;3601566;40;20035;-79
2021/06/08 06:29:23;;;;;;;8.52;2.20;;;;;;;17.35;64.49;101495.66;3598761;40;20413;-80
2021/06/08 06:32:21;;;;;;;2.75;1.45;;;;;;;17.41;62.19;101496.31;3589180;40;20031;-79
2021/06/08 06:34:50;;;;;;;5.10;1.70;;;;;;;17.41;64.33;101493.69;3594745;40;20102;-80
2021/06/08 06:37:21;;;;;;;5.53;1.88;;;;;;;17.43;64.36;101492.69;3596512;40;20055;-80
2021/06/08 06:39:52;;;;;;;4.93;1.90;;;;;;;17.48;64.30;101489.88;3589316;40;20028;-79
2021/06/08 06:42:30;;;;;;;2.75;1.38;;;;;;;17.53;63.44;101480.00;3589176;40;20035;-79
2021/06/08 06:44:59;;;;;;;3.63;1.60;;;;;;;17.59;64.65;101498.28;3596753;40;20044;-79
2021/06/08 06:47:26;;;;;;;6.05;1.55;;;;;;;17.61;64.83;101488.50;3597952;40;20427;-79
2021/06/08 06:49:53;;;;;;;4.45;1.60;;;;;;;17.67;64.42;101484.75;3588656;40;20085;-80
2021/06/08 06:52:23;;;;;;;3.97;1.40;;;;;;;17.77;63.85;101492.28;3579598;40;20729;-79
2021/06/08 06:54:59;;;;;;;3.95;1.42;;;;;;;17.86;62.86;101491.06;3588656;40;20157;-79
2021/06/08 06:57:29;;;;;;;4.55;1.60;;;;;;;17.92;63.85;101488.16;3587741;40;20060;-79
2021/06/08 07:00:00;;;;;;;2.47;1.20;;;;;;;17.98;63.24;101476.47;3588460;40;20037;-79
2021/06/08 07:02:54;;;;;;;3.63;1.50;;;;;;;18.12;61.99;101492.63;3587270;40;20091;-79
2021/06/08 07:05:31;;;;;;;3.70;1.50;;;;;;;18.17;62.04;101485.34;3601349;40;20916;-79
2021/06/08 07:08:03;;;;;;;;;;;;;;;18.27;60.19;101491.97;3597645;40;20100;-80
2021/06/08 07:10:48;;;;;;;3.92;1.65;;;;;;;18.29;63.22;101487.47;3550912;40;19972;-80
2021/06/08 07:13:45;;;;;;;4.65;1.48;;;;;;;18.41;61.50;101488.75;3549044;40;20046;-79
2021/06/08 07:16:16;;;;;;;4.18;1.30;;;;;;;18.45;62.77;101494.75;3555322;40;20336;-79
2021/06/08 07:18:46;;;;;;;2.05;1.20;;;;;;;18.49;62.77;101494.56;3549955;40;20103;-79
2021/06/08 07:21:15;;;;;;;4.95;1.33;;;;;;;18.56;62.96;101497.81;3567793;40;20054;-80
2021/06/08 07:23:50;;;;;;;3.22;1.20;;;;;;;18.62;61.98;101503.69;3585992;40;20479;-80
2021/06/08 07:26:17;;;;;;;4.55;1.25;;;;;;;18.65;62.49;101498.28;3579737;40;20029;-79
2021/06/08 07:28:47;;;;;;;2.00;1.15;;;;;;;18.75;62.08;101498.75;3578688;40;20057;-79
2021/06/08 07:31:23;;;;;;;3.15;1.50;;;;;;;18.79;61.74;101489.75;3588225;40;20033;-79
2021/06/08 07:34:03;;;;;;;4.18;1.30;;;;;;;18.89;61.65;101491.06;3588997;40;20060;-79
2021/06/08 07:36:45;;;;;;;5.13;1.40;;;;;;;19.02;61.03;101493.16;3587372;40;20037;-79
2021/06/08 07:39:21;;;;;;;1.90;1.25;;;;;;;19.08;61.07;101499.03;3577242;40;20033;-80
2021/06/08 07:42:07;;;;;;;4.80;1.67;;;;;;;19.14;61.01;101496.09;3588332;40;20037;-79
2021/06/08 07:44:51;;;;;;;4.57;1.58;;;;;;;19.21;60.56;101490.53;3585224;40;20065;-79
2021/06/08 07:47:22;;;;;;;3.10;1.42;;;;;;;19.26;61.06;101489.41;3592673;40;20037;-80
2021/06/08 07:49:54;;;;;;;3.80;1.35;;;;;;;19.33;60.87;101493.47;3586122;40;20037;-79
2021/06/08 07:52:27;;;;;;;2.70;1.20;;;;;;;19.39;60.54;101495.84;3587411;40;20701;-79
2021/06/08 07:54:56;;;;;;;4.13;1.42;;;;;;;19.39;61.02;101490.53;3569029;40;20864;-80
2021/06/08 07:57:24;;;;;;;4.45;1.80;;;;;;;19.43;61.19;101481.53;3595287;40;20048;-80
2021/06/08 08:03:25;;;;;;;2.03;1.13;;;;;;;19.59;59.37;101480.78;3589962;40;20021;-81
2021/06/08 08:06:11;;;;;;;2.15;0.93;;;;;;;19.69;58.39;101492.69;3588815;40;20044;-80
2021/06/08 08:08:39;;;;;;;3.60;1.00;;;;;;;19.77;58.24;101482.59;3582046;40;20073;-81
2021/06/08 08:11:09;;;;;;;2.20;1.00;;;;;;;19.86;57.51;101490.06;3587107;40;20052;-81
2021/06/08 08:13:45;;;;;;;2.05;0.98;;;;;;;19.96;57.82;101471.94;3576392;40;20033;-81
2021/06/08 08:16:14;;;;;;;3.22;1.00;;;;;;;20.06;57.30;101478.50;3592166;40;20501;-81
2021/06/08 08:18:43;;;;;;;2.80;1.00;;;;;;;20.14;57.19;101473.66;3589984;40;20413;-81
2021/06/08 08:21:14;;;;;;;2.72;1.10;;;;;;;20.20;56.97;101468.06;3579501;40;20041;-81
2021/06/08 08:23:43;;;;;;;4.53;1.10;;;;;;;20.34;56.89;101469.16;3589008;40;20392;-81
2021/06/08 08:26:13;;;;;;;2.88;1.08;;;;;;;20.43;55.88;101469.53;3589196;40;20287;-81
2021/06/08 08:28:41;;;;;;;2.30;1.25;;;;;;;20.53;55.77;101474.38;3578867;40;20086;-80
2021/06/08 08:31:12;;;;;;;2.03;1.00;;;;;;;20.61;55.57;101472.19;3568000;40;20057;-81
2021/06/08 08:33:39;;;;;;;3.88;1.13;;;;;;;20.65;55.02;101473.75;3578468;40;20125;-81
2021/06/08 08:36:14;;;;;;;2.88;1.30;;;;;;;20.81;54.84;101479.09;3584033;40;20056;-81
2021/06/08 08:38:43;;;;;;;4.20;1.30;;;;;;;20.83;54.70;101472.75;3589827;40;20393;-81
2021/06/08 08:41:11;;;;;;;3.08;1.15;;;;;;;20.88;55.13;101481.38;3590673;40;20037;-81
2021/06/08 08:43:45;;;;;;;3.03;1.30;;;;;;;20.98;54.70;101468.44;3588573;40;20647;-80
2021/06/08 08:46:15;;;;;;;5.55;1.00;;;;;;;21.09;54.14;101465.22;3591830;40;20021;-81
2021/06/08 08:48:44;;;;;;;4.95;1.65;;;;;;;21.19;55.12;101463.78;3584564;40;20038;-81
2021/06/08 08:51:16;;;;;;;1.98;1.08;;;;;;;21.28;54.70;101463.25;3585283;40;20045;-81
2021/06/08 08:53:46;;;;;;;2.85;1.33;;;;;;;21.38;54.64;101453.84;3587637;40;20039;-80
2021/06/08 08:56:35;;;;;;;4.50;1.33;;;;;;;21.48;53.83;101460.38;3580166;40;20033;-81
2021/06/08 08:59:14;;;;;;;2.90;0.98;;;;;;;21.66;53.10;101462.94;3584619;40;20033;-81
2021/06/08 09:01:45;;;;;;;0.90;0.70;;;;;;;21.67;52.51;101459.34;3581262;40;20041;-81
2021/06/08 09:04:17;;;;;;;2.25;1.00;;;;;;;21.80;51.46;101455.03;3578934;40;20045;-81
2021/06/08 09:06:44;;;;;;;2.28;0.75;;;;;;;21.87;52.20;101445.75;3578358;40;20033;-82
2021/06/08 09:09:11;;;;;;;2.85;0.98;;;;;;;21.92;50.57;101451.66;3585433;40;20130;-81
2021/06/08 09:11:41;;;;;;;2.90;0.88;;;;;;;22.08;51.32;101458.75;3583043;40;20077;-81
2021/06/08 09:14:10;;;;;;;1.25;0.80;;;;;;;22.18;51.62;101452.81;3585165;40;20030;-81
2021/06/08 09:16:42;;;;;;;1.83;0.90;;;;;;;22.31;51.06;101452.09;3586490;40;20059;-81
2021/06/08 09:19:11;;;;;;;6.43;1.00;;;;;;;22.35;49.49;101441.16;3586224;40;20045;-81
2021/06/08 09:21:53;;;;;;;2.50;0.85;;;;;;;22.50;50.01;101453.53;3571992;40;20040;-81
2021/06/08 09:24:26;;;;;;;2.90;0.85;;;;;;;22.53;49.69;101445.38;3581886;40;20053;-81
2021/06/08 09:26:59;;;;;;;2.85;1.17;;;;;;;22.66;48.94;101461.47;3581077;40;20095;-81
2021/06/08 09:29:30;;;;;;;2.40;0.95;;;;;;;22.67;48.48;101452.53;3573517;40;20041;-81
2021/06/08 09:32:23;;;;;;;1.73;0.80;;;;;;;22.76;49.58;101459.09;3584122;40;20061;-81
2021/06/08 09:35:01;;;;;;;1.27;0.65;;;;;;;22.82;48.75;101450.72;3586960;40;20047;-81
2021/06/08 09:37:34;;;;;;;1.52;0.90;;;;;;;22.88;48.23;101449.47;3586243;40;20160;-81
2021/06/08 09:40:20;;;;;;;4.57;0.90;;;;;;;22.96;48.99;101442.75;3587394;40;20350;-80
2021/06/08 09:43:07;;;;;;;1.23;0.73;;;;;;;23.00;48.96;101449.59;3584776;40;20537;-81
2021/06/08 09:45:44;;;;;;;;;;;;;;;23.11;49.30;101458.72;3573338;40;20108;-81
2021/06/08 09:48:13;;;;;;;;;;;;;;;23.19;49.52;101453.75;3583850;40;20325;-81
2021/06/08 09:50:43;;;;;;;2.13;0.70;;;;;;;23.16;47.21;101443.28;3580460;40;19965;-81
2021/06/08 09:53:29;;;;;;;2.90;0.75;;;;;;;23.22;48.07;101437.59;3583469;40;20041;-81
2021/06/08 09:55:56;;;;;;;1.95;1.00;;;;;;;23.25;47.82;101440.03;3580805;40;20053;-81
2021/06/08 09:58:28;;;;;;;1.63;0.85;;;;;;;23.39;47.38;101418.69;3586220;40;20263;-81
2021/06/08 10:01:05;;;;;;;2.45;0.85;;;;;;;23.54;47.42;101420.34;3584501;40;20044;-82
2021/06/08 10:03:40;;;;;;;1.50;0.70;;;;;;;23.62;46.06;101429.66;3594998;40;20106;-82
2021/06/08 10:06:15;;;;;;;1.48;0.70;;;;;;;23.76;46.14;101443.81;3581984;40;20086;-81
2021/06/08 10:08:49;;;;;;;1.52;0.63;;;;;;;23.84;46.45;101432.66;3595382;40;20090;-81
2021/06/08 10:11:27;;;;;;;0.90;0.70;;;;;;;23.95;46.96;101443.44;3595764;40;20091;-81
2021/06/08 10:14:07;;;;;;;0.75;0.43;;;;;;;23.95;46.34;101431.94;3594155;40;20040;-80
2021/06/08 10:16:34;;;;;;;2.25;0.77;;;;;;;23.95;45.15;101438.13;3595623;40;20367;-81
2021/06/08 10:19:07;;;;;;;1.00;0.70;;;;;;;23.99;45.41;101442.28;3590458;40;20389;-81
2021/06/08 10:21:36;;;;;;;1.50;0.50;;;;;;;23.91;45.59;101444.59;3587454;40;20040;-81
2021/06/08 10:24:15;;;;;;;2.75;0.85;;;;;;;23.88;45.93;101446.66;3591166;40;20053;-81
2021/06/08 10:26:51;;;;;;;0.98;0.60;;;;;;;23.73;46.35;101433.38;3587511;40;20033;-81
2021/06/08 10:29:28;;;;;;;2.97;1.48;;;;;;;23.68;46.16;101438.16;3588646;40;20042;-81
2021/06/08 10:31:57;;;;;;;5.82;1.00;;;;;;;23.62;46.27;101441.19;3597014;40;20036;-80
2021/06/08 10:34:40;;;;;;;2.25;0.80;;;;;;;23.56;47.10;101431.75;3599839;40;20746;-81
2021/06/08 10:37:12;;;;;;;2.70;0.77;;;;;;;23.52;47.43;101424.94;3592915;40;20110;-81
2021/06/08 10:39:43;;;;;;;2.15;0.60;;;;;;;23.53;47.36;101431.97;3593435;40;20903;-81
2021/06/08 10:42:11;;;;;;;2.50;0.80;;;;;;;23.50;48.13;101426.84;3597244;40;20028;-81
2021/06/08 10:44:44;;;;;;;3.42;0.80;;;;;;;23.62;47.47;101429.66;3592642;40;20118;-82
2021/06/08 10:50:32;;;;;;;1.50;0.70;;;;;;;23.82;47.38;101437.22;3587300;40;20039;-81
2021/06/08 10:53:05;;;;;;;1.67;0.90;;;;;;;23.91;46.78;101449.09;3587806;40;20390;-81
2021/06/08 10:55:34;;;;;;;1.75;0.63;;;;;;;23.94;45.89;101455.09;3595601;40;20033;-81
2021/06/08 10:58:04;;;;;;;1.85;0.75;;;;;;;23.93;45.64;101448.03;3593641;40;20118;-81
2021/06/08 11:00:36;;;;;;;2.35;0.90;;;;;;;23.94;45.94;101456.91;3588263;40;20034;-81
2021/06/08 11:03:08;;;;;;;2.33;0.70;;;;;;;23.89;46.01;101449.22;3596873;40;20041;-81
2021/06/08 11:05:57;;;;;;;2.47;0.90;;;;;;;23.82;46.14;101442.56;3598492;40;20125;-81
2021/06/08 11:08:59;;;;;;;2.03;0.70;;;;;;;23.75;46.78;101443.94;3589970;40;20061;-81
2021/06/08 11:11:47;;;;;;;1.73;0.60;;;;;;;23.67;47.18;101448.91;3603171;40;20044;-81
2021/06/08 11:14:54;;;;;;;2.95;0.80;;;;;;;23.68;47.63;101437.31;3603487;40;20032;-81
2021/06/08 11:17:40;;;;;;;2.97;0.90;;;;;;;23.66;47.41;101436.53;3584497;40;20349;-81
2021/06/08 11:20:12;;;;;;;2.15;0.65;;;;;;;23.61;47.05;101438.59;3597332;40;20069;-81
2021/06/08 11:22:39;;;;;;;2.47;0.70;;;;;;;23.50;47.80;101448.16;3589151;40;20042;-81
2021/06/08 11:25:26;;;;;;;0.80;0.60;;;;;;;23.46;47.70;101435.97;3596995;40;20486;-81
2021/06/08 11:27:58;;;;;;;1.30;0.80;;;;;;;23.48;47.58;101444.75;3589096;40;20024;-81
2021/06/08 11:30:33;;;;;;;0.90;0.70;;;;;;;23.45;47.45;101450.28;3607161;40;20883;-81
2021/06/08 11:33:06;;;;;;;1.85;0.70;;;;;;;23.47;47.47;101443.06;3600625;40;20039;-81
2021/06/08 11:35:40;;;;;;;3.55;0.80;;;;;;;23.45;48.13;101436.94;3587315;40;20093;-81
2021/06/08 11:38:12;;;;;;;0.70;0.60;;;;;;;23.41;47.87;101448.75;3603245;40;20469;-81
2021/06/08 11:40:42;;;;;;;0.90;0.50;;;;;;;23.40;47.74;101443.53;3604722;40;20531;-81
2021/06/08 11:43:13;;;;;;;1.90;0.60;;;;;;;23.37;48.02;101439.28;3593100;40;20033;-81
2021/06/08 11:45:45;;;;;;;2.65;0.50;;;;;;;23.32;48.35;101444.03;3598121;40;20090;-81
2021/06/08 11:48:32;;;;;;;1.75;0.80;;;;;;;23.36;48.27;101444.69;3604470;40;20036;-81
2021/06/08 11:51:24;;;;;;;1.83;0.63;;;;;;;23.38;49.24;101438.31;3587155;40;20043;-81
2021/06/08 11:54:02;;;;;;;1.02;0.70;;;;;;;23.48;48.95;101415.44;3599923;40;20479;-81
2021/06/08 11:56:56;;;;;;;2.47;1.00;;;;;;;23.74;48.62;101428.88;3593506;40;20044;-81
2021/06/08 11:59:27;;;;;;;2.03;0.90;;;;;;;23.90;48.68;101429.56;3588371;40;20089;-82
2021/06/08 12:02:06;;;;;;;2.35;0.68;;;;;;;24.22;47.59;101418.50;3588467;40;20426;-82